Time;durP1;ratioP1;P1;durP2;ratioP2;P2;SDS_P1;SDS_P2;PMS_P1;PMS_P2;Temp;Humidity;BMP_temperature;BMP_pressure;BME280_temperature;BME280_humidity;BME280_pressure;Samples;Min_cycle;Max_cycle;Signal;HPM_P1;HPM_P2
2022/05/02 00:00:28;;;;;;;10.40;8.68;;;7.20;85.80;;;;;;5053912;28;20647;-64
2022/05/02 00:02:55;;;;;;;14.52;10.45;;;7.20;86.20;;;;;;5055355;28;20188;-63
2022/05/02 00:05:23;;;;;;;10.60;9.02;;;7.10;86.50;;;;;;5054915;28;20174;-63
2022/05/02 00:07:50;;;;;;;12.73;9.00;;;7.10;86.40;;;;;;5055191;28;20217;-63
2022/05/02 00:10:18;;;;;;;12.90;8.88;;;7.10;86.20;;;;;;5054348;28;20218;-62
2022/05/02 00:12:45;;;;;;;11.77;10.07;;;7.10;86.50;;;;;;5055187;28;20201;-62
2022/05/02 00:15:12;;;;;;;10.30;8.68;;;7.00;87.20;;;;;;5054281;28;20262;-63
2022/05/02 00:17:58;;;;;;;13.35;9.55;;;7.00;87.30;;;;;;5054931;28;20201;-62
2022/05/02 00:20:28;;;;;;;13.60;9.05;;;7.00;87.00;;;;;;5054174;28;20197;-63
2022/05/02 00:22:55;;;;;;;11.05;9.20;;;7.00;86.60;;;;;;5055092;28;20201;-63
2022/05/02 00:25:22;;;;;;;12.07;9.85;;;7.00;87.10;;;;;;5052896;28;20179;-63
2022/05/02 00:27:50;;;;;;;12.88;9.68;;;7.10;87.30;;;;;;5054495;28;20197;-63
2022/05/02 00:30:17;;;;;;;11.93;8.50;;;7.10;87.10;;;;;;5053945;28;20213;-63
2022/05/02 00:32:44;;;;;;;11.70;8.20;;;7.00;86.00;;;;;;5054889;28;20230;-64
2022/05/02 00:35:12;;;;;;;12.10;9.63;;;7.00;85.40;;;;;;5053996;28;20193;-62
2022/05/02 00:37:42;;;;;;;10.20;8.90;;;6.90;85.70;;;;;;5054724;28;20200;-63
2022/05/02 00:40:11;;;;;;;12.13;9.40;;;6.90;85.50;;;;;;5053908;28;20185;-63
2022/05/02 00:42:38;;;;;;;12.05;8.82;;;6.90;85.40;;;;;;5053689;28;20717;-63
2022/05/02 00:45:07;;;;;;;11.25;8.65;;;6.80;85.60;;;;;;5053041;28;20506;-62
2022/05/02 00:47:34;;;;;;;12.15;9.43;;;6.80;86.10;;;;;;5054098;28;20313;-63
2022/05/02 00:50:02;;;;;;;14.02;10.05;;;6.80;86.30;;;;;;5052583;28;20214;-66
2022/05/02 00:52:29;;;;;;;13.57;9.43;;;6.70;85.90;;;;;;5054331;28;20199;-63
2022/05/02 00:54:58;;;;;;;11.32;8.98;;;6.60;85.60;;;;;;5053488;28;20190;-63
2022/05/02 00:57:25;;;;;;;11.95;9.68;;;6.60;86.30;;;;;;5053914;28;20289;-62
2022/05/02 00:59:52;;;;;;;11.05;9.00;;;6.50;86.70;;;;;;5053828;28;20281;-63
2022/05/02 01:02:19;;;;;;;11.75;9.13;;;6.50;87.30;;;;;;5053581;28;20182;-63
2022/05/02 01:04:47;;;;;;;11.30;9.40;;;6.50;87.70;;;;;;5054079;28;20197;-63
2022/05/02 01:07:18;;;;;;;11.70;9.20;;;6.50;87.90;;;;;;5053261;28;20193;-63
2022/05/02 01:09:47;;;;;;;10.60;8.45;;;6.40;88.20;;;;;;5054027;28;20264;-63
2022/05/02 01:12:16;;;;;;;13.02;8.98;;;6.40;87.90;;;;;;5052950;28;20273;-65
2022/05/02 01:14:45;;;;;;;10.57;8.77;;;6.40;88.30;;;;;;5053975;28;20632;-63
2022/05/02 01:17:13;;;;;;;13.13;9.40;;;6.30;87.20;;;;;;5053109;28;20202;-63
2022/05/02 01:19:40;;;;;;;11.35;8.63;;;6.30;86.20;;;;;;5052625;28;20600;-63
2022/05/02 01:22:08;;;;;;;12.75;9.75;;;6.20;85.80;;;;;;5053108;28;20192;-62
2022/05/02 01:24:37;;;;;;;11.13;9.02;;;6.20;86.00;;;;;;5053952;28;20209;-62
2022/05/02 01:27:06;;;;;;;11.20;8.52;;;6.20;86.90;;;;;;5052872;28;20187;-62
2022/05/02 01:29:34;;;;;;;11.30;8.10;;;6.20;85.70;;;;;;5053612;28;20675;-63
2022/05/02 01:32:01;;;;;;;10.73;8.63;;;6.20;85.50;;;;;;5052605;28;20189;-63
2022/05/02 01:34:28;;;;;;;10.68;8.30;;;6.20;84.80;;;;;;5053575;28;20190;-63
2022/05/02 01:36:56;;;;;;;11.77;8.73;;;6.20;84.60;;;;;;5052931;28;20179;-62
2022/05/02 01:39:24;;;;;;;11.23;9.23;;;6.20;84.30;;;;;;5053448;28;20193;-63
2022/05/02 01:41:51;;;;;;;11.85;8.60;;;6.20;84.00;;;;;;5051695;28;20269;-63
2022/05/02 01:44:18;;;;;;;12.00;8.02;;;6.10;82.90;;;;;;5053507;28;20201;-63
2022/05/02 01:46:45;;;;;;;9.52;8.02;;;6.00;83.00;;;;;;5052564;28;20760;-62
2022/05/02 01:49:12;;;;;;;8.88;7.90;;;6.00;83.50;;;;;;5053193;28;20186;-62
2022/05/02 01:51:39;;;;;;;33.25;18.15;;;6.00;84.20;;;;;;5052585;28;20224;-62
2022/05/02 01:54:06;;;;;;;32.33;15.63;;;5.90;84.70;;;;;;5053097;28;20191;-63
2022/05/02 01:56:35;;;;;;;17.60;12.50;;;5.90;85.20;;;;;;5052419;28;20195;-63
2022/05/02 01:59:02;;;;;;;12.63;8.95;;;5.90;85.70;;;;;;5052732;28;20653;-63
2022/05/02 02:01:29;;;;;;;11.75;8.13;;;6.00;85.50;;;;;;5052388;28;20182;-63
2022/05/02 02:03:56;;;;;;;9.60;8.15;;;5.90;85.10;;;;;;5052783;28;20241;-63
2022/05/02 02:06:22;;;;;;;8.05;7.25;;;5.90;86.20;;;;;;5052037;28;20186;-62
2022/05/02 02:08:50;;;;;;;8.75;7.50;;;5.90;84.90;;;;;;5052966;28;20190;-63
2022/05/02 02:11:17;;;;;;;11.40;8.15;;;5.90;84.50;;;;;;5052402;28;20206;-62
2022/05/02 02:13:46;;;;;;;10.38;7.53;;;5.90;84.10;;;;;;5052940;28;20277;-64
2022/05/02 02:16:13;;;;;;;9.05;8.15;;;5.70;84.00;;;;;;5051055;28;20260;-63
2022/05/02 02:18:42;;;;;;;8.90;7.50;;;5.70;84.40;;;;;;5052138;28;20214;-62
2022/05/02 02:21:11;;;;;;;12.13;8.73;;;5.70;84.40;;;;;;5051896;28;20198;-63
2022/05/02 02:23:39;;;;;;;10.98;8.50;;;5.70;84.90;;;;;;5052675;28;20190;-63
2022/05/02 02:26:06;;;;;;;11.60;8.93;;;5.60;85.40;;;;;;5052308;28;20276;-63
2022/05/02 02:28:34;;;;;;;11.23;10.02;;;5.60;85.70;;;;;;5050758;28;20187;-63
2022/05/02 02:31:02;;;;;;;12.93;10.30;;;5.60;85.70;;;;;;5052650;28;20222;-62
2022/05/02 02:33:29;;;;;;;21.00;13.73;;;5.60;86.10;;;;;;5051881;28;20190;-62
2022/05/02 02:35:56;;;;;;;11.50;9.43;;;5.70;86.90;;;;;;5052264;28;20190;-63
2022/05/02 02:38:23;;;;;;;11.57;10.40;;;5.60;86.60;;;;;;5052013;28;20186;-64
2022/05/02 02:40:50;;;;;;;13.70;8.98;;;5.70;87.00;;;;;;5052680;28;20285;-63
2022/05/02 02:43:17;;;;;;;11.75;9.60;;;5.70;86.10;;;;;;5051846;28;20270;-63
2022/05/02 02:45:44;;;;;;;11.63;8.80;;;5.70;85.60;;;;;;5052139;28;20221;-63
2022/05/02 02:48:12;;;;;;;10.52;8.73;;;5.50;86.70;;;;;;5051560;28;20281;-62
2022/05/02 02:50:39;;;;;;;10.40;8.40;;;5.50;87.30;;;;;;5052341;28;20214;-62
2022/05/02 02:53:06;;;;;;;11.65;9.27;;;5.50;86.90;;;;;;5051822;28;20273;-63
2022/05/02 02:55:34;;;;;;;11.35;9.50;;;5.50;86.20;;;;;;5052549;28;20220;-63
2022/05/02 02:58:02;;;;;;;11.30;7.47;;;5.60;86.80;;;;;;5050860;28;20182;-63
2022/05/02 03:00:29;;;;;;;9.73;7.30;;;5.60;86.80;;;;;;5050659;28;20660;-63
2022/05/02 03:02:56;;;;;;;10.77;8.52;;;5.60;87.60;;;;;;5052111;28;20265;-62
2022/05/02 03:08:10;;;;;;;10.80;8.63;;;5.60;86.90;;;;;;5054438;28;20692;-62
2022/05/02 03:10:37;;;;;;;9.35;7.30;;;5.70;86.60;;;;;;5056332;28;20221;-62
2022/05/02 03:13:05;;;;;;;14.18;8.63;;;5.60;85.40;;;;;;5055085;28;20281;-64
2022/05/02 03:15:33;;;;;;;10.30;7.93;;;5.60;84.80;;;;;;5055428;28;20183;-63
2022/05/02 03:18:00;;;;;;;11.45;8.13;;;5.60;84.50;;;;;;5056073;28;20194;-62
2022/05/02 03:20:28;;;;;;;9.80;7.30;;;5.60;84.60;;;;;;5055312;28;20244;-62
2022/05/02 03:22:55;;;;;;;10.13;7.75;;;5.50;84.80;;;;;;5055823;28;20286;-66
2022/05/02 03:25:22;;;;;;;10.50;7.43;;;5.50;83.30;;;;;;5054421;28;20190;-62
2022/05/02 03:27:49;;;;;;;10.13;7.40;;;5.50;83.70;;;;;;5056030;28;20190;-63
2022/05/02 03:30:16;;;;;;;11.68;8.40;;;5.40;84.60;;;;;;5054985;28;20273;-63
2022/05/02 03:32:43;;;;;;;14.77;9.18;;;5.40;85.20;;;;;;5055408;28;20196;-63
2022/05/02 03:35:10;;;;;;;12.88;8.73;;;5.40;85.20;;;;;;5055099;28;20194;-62
2022/05/02 03:37:38;;;;;;;11.68;8.10;;;5.40;85.10;;;;;;5055730;28;20277;-62
2022/05/02 03:40:07;;;;;;;9.27;7.32;;;5.40;85.30;;;;;;5054854;28;20278;-62
2022/05/02 03:42:34;;;;;;;17.63;9.45;;;5.40;85.90;;;;;;5055744;28;20221;-62
2022/05/02 03:45:01;;;;;;;11.05;8.00;;;5.50;85.90;;;;;;5054731;28;20528;-62
2022/05/02 03:47:28;;;;;;;9.48;7.53;;;5.50;85.30;;;;;;5055393;28;20219;-64
2022/05/02 03:49:55;;;;;;;9.02;7.60;;;5.40;84.00;;;;;;5054678;28;20538;-63
2022/05/02 03:52:22;;;;;;;10.13;7.45;;;5.30;82.90;;;;;;5055537;28;20610;-64
2022/05/02 03:54:50;;;;;;;9.52;7.43;;;5.40;83.00;;;;;;5054672;28;20190;-62
2022/05/02 03:57:18;;;;;;;8.30;7.03;;;5.30;83.40;;;;;;5055355;28;20285;-62
2022/05/02 03:59:45;;;;;;;12.05;8.40;;;5.30;84.50;;;;;;5055407;28;20190;-62
2022/05/02 04:02:12;;;;;;;8.88;7.45;;;5.40;85.10;;;;;;5055039;28;20199;-62
2022/05/02 04:04:39;;;;;;;10.45;6.75;;;5.40;84.70;;;;;;5054769;28;20186;-62
2022/05/02 04:07:06;;;;;;;13.00;7.60;;;5.40;83.70;;;;;;5055568;28;20191;-62
2022/05/02 04:09:33;;;;;;;9.70;6.70;;;5.40;82.70;;;;;;5053624;28;20183;-62
2022/05/02 04:12:01;;;;;;;9.70;7.30;;;5.30;83.00;;;;;;5055188;28;20313;-62
2022/05/02 04:14:28;;;;;;;8.18;6.35;;;5.30;83.60;;;;;;5053945;28;20612;-63
2022/05/02 04:16:55;;;;;;;9.27;6.95;;;5.30;83.00;;;;;;5055348;28;20198;-63
2022/05/02 04:19:22;;;;;;;9.65;7.45;;;5.30;82.10;;;;;;5053974;28;20185;-62
2022/05/02 04:21:49;;;;;;;11.23;6.65;;;5.20;82.10;;;;;;5055353;28;20244;-62
2022/05/02 04:24:16;;;;;;;13.95;8.82;;;5.10;82.90;;;;;;5055296;28;20190;-62
2022/05/02 04:26:43;;;;;;;8.48;6.40;;;5.00;83.50;;;;;;5054812;28;20190;-64
2022/05/02 04:29:11;;;;;;;13.95;7.45;;;5.00;83.90;;;;;;5054436;28;20179;-62
2022/05/02 04:31:38;;;;;;;9.32;7.35;;;5.10;84.10;;;;;;5054975;28;20218;-63
2022/05/02 04:34:05;;;;;;;14.30;6.40;;;5.10;84.20;;;;;;5054769;28;20194;-63
2022/05/02 04:36:32;;;;;;;12.23;7.78;;;5.20;84.80;;;;;;5052387;28;20193;-63
2022/05/02 04:38:58;;;;;;;8.32;6.95;;;5.20;84.90;;;;;;5054398;28;20282;-62
2022/05/02 04:41:25;;;;;;;9.20;6.95;;;5.10;83.00;;;;;;5053993;28;20281;-63
2022/05/02 04:43:53;;;;;;;6.72;6.03;;;5.10;83.10;;;;;;5054730;28;20763;-63
2022/05/02 04:46:23;;;;;;;10.00;6.95;;;5.10;83.70;;;;;;5053591;28;20219;-64
2022/05/02 04:48:50;;;;;;;9.75;8.25;;;5.10;84.40;;;;;;5048801;28;20187;-63
2022/05/02 04:51:17;;;;;;;8.43;6.88;;;5.20;85.00;;;;;;5050775;28;20248;-62
2022/05/02 04:53:44;;;;;;;8.93;7.80;;;5.20;85.10;;;;;;5051530;28;20195;-65
2022/05/02 04:56:11;;;;;;;8.68;7.60;;;5.30;85.70;;;;;;5047260;28;20305;-64
2022/05/02 04:58:38;;;;;;;10.13;8.02;;;5.40;86.00;;;;;;5050662;28;20277;-63
2022/05/02 05:01:07;;;;;;;10.40;8.30;;;5.40;86.80;;;;;;5050879;28;20202;-62
2022/05/02 05:03:36;;;;;;;11.38;9.73;;;5.60;87.40;;;;;;5049998;28;20198;-63
2022/05/02 05:06:03;;;;;;;10.10;7.82;;;5.80;87.80;;;;;;5048262;28;20190;-63
2022/05/02 05:08:30;;;;;;;11.25;8.32;;;5.90;88.10;;;;;;5048982;28;20613;-63
2022/05/02 05:11:09;;;;;;;9.52;7.90;;;6.00;88.30;;;;;;5050185;28;20273;-65
2022/05/02 05:13:44;;;;;;;9.00;7.25;;;6.20;88.40;;;;;;5048423;28;20221;-63
2022/05/02 05:16:47;;;;;;;15.10;7.50;;;6.30;87.50;;;;;;5050719;28;20564;-63
2022/05/02 05:19:38;;;;;;;13.10;9.77;;;6.40;87.50;;;;;;5049948;28;20186;-63
2022/05/02 05:22:18;;;;;;;12.02;8.30;;;6.50;87.30;;;;;;5051143;28;20194;-64
2022/05/02 05:25:22;;;;;;;11.43;8.75;;;6.60;87.70;;;;;;5044163;28;20255;-63
2022/05/02 05:28:05;;;;;;;12.18;9.10;;;6.70;87.70;;;;;;5047961;28;20194;-62
2022/05/02 05:30:39;;;;;;;13.70;9.93;;;6.80;88.10;;;;;;5051018;28;20198;-63
2022/05/02 05:33:20;;;;;;;13.70;9.32;;;6.90;89.30;;;;;;5051499;28;20271;-63
2022/05/02 05:36:02;;;;;;;11.35;8.98;;;7.00;89.90;;;;;;5049133;28;20222;-62
2022/05/02 05:38:39;;;;;;;12.55;9.27;;;7.10;90.00;;;;;;5049060;28;20194;-62
2022/05/02 05:41:25;;;;;;;11.00;8.63;;;7.20;90.20;;;;;;5049663;28;20182;-63
2022/05/02 05:44:03;;;;;;;16.88;10.85;;;7.30;90.20;;;;;;5050797;28;20217;-63
2022/05/02 05:47:00;;;;;;;14.60;10.65;;;7.40;89.30;;;;;;5050252;28;20218;-63
2022/05/02 05:49:39;;;;;;;10.93;9.82;;;7.50;89.10;;;;;;5039219;28;20915;-63
2022/05/02 05:52:15;;;;;;;11.60;10.40;;;7.60;89.50;;;;;;5047212;28;20751;-63
2022/05/02 05:55:00;;;;;;;12.05;9.15;;;7.70;89.90;;;;;;5048004;28;20193;-64
2022/05/02 05:57:33;;;;;;;10.88;8.38;;;7.80;90.00;;;;;;5047559;28;20183;-63
2022/05/02 06:00:07;;;;;;;10.38;7.78;;;7.90;89.90;;;;;;5047937;28;20208;-65
2022/05/02 06:02:46;;;;;;;10.25;8.57;;;8.10;90.00;;;;;;5045342;28;20272;-63
2022/05/02 06:05:14;;;;;;;9.20;8.30;;;8.20;89.70;;;;;;5047112;28;20222;-64
2022/05/02 06:07:44;;;;;;;12.13;10.52;;;8.40;90.00;;;;;;5045332;28;20187;-62
2022/05/02 06:10:11;;;;;;;12.57;10.05;;;8.60;90.30;;;;;;5049042;28;20213;-63
2022/05/02 06:12:40;;;;;;;12.02;9.18;;;8.70;90.40;;;;;;5049354;28;20602;-63
2022/05/02 06:20:44;;;;;;;13.48;9.95;;;9.30;90.90;;;;;;5050579;28;20259;-63
2022/05/02 06:23:14;;;;;;;10.48;9.43;;;9.50;90.90;;;;;;5051055;28;20190;-63
2022/05/02 06:25:44;;;;;;;11.20;10.00;;;9.70;90.80;;;;;;5051228;28;20613;-62
2022/05/02 06:28:11;;;;;;;11.48;9.50;;;9.90;90.70;;;;;;5048728;28;20522;-63
2022/05/02 06:30:40;;;;;;;10.52;8.73;;;10.10;89.30;;;;;;5050321;28;20200;-64
2022/05/02 06:33:12;;;;;;;11.48;9.27;;;10.20;88.80;;;;;;5049131;28;20221;-63
2022/05/02 06:35:57;;;;;;;10.13;8.60;;;10.40;88.80;;;;;;5047615;28;20194;-62
2022/05/02 06:38:41;;;;;;;11.23;9.15;;;10.60;88.00;;;;;;5044155;28;20194;-64
2022/05/02 06:41:21;;;;;;;11.20;9.45;;;10.90;87.60;;;;;;5046769;28;20190;-64
2022/05/02 06:43:58;;;;;;;14.27;8.90;;;11.00;87.30;;;;;;5052154;28;20186;-64
2022/05/02 06:46:31;;;;;;;10.45;8.43;;;11.20;86.50;;;;;;5052406;28;20256;-69
2022/05/02 06:49:03;;;;;;;9.52;8.25;;;11.40;85.20;;;;;;5050539;28;20657;-63
2022/05/02 06:51:32;;;;;;;11.43;9.07;;;11.50;84.50;;;;;;5053608;28;20308;-68
2022/05/02 06:54:21;;;;;;;10.20;8.45;;;11.60;84.00;;;;;;5052788;28;20205;-64
2022/05/02 06:56:56;;;;;;;10.27;8.82;;;11.80;83.80;;;;;;5051276;28;20194;-63
2022/05/02 06:59:32;;;;;;;10.20;7.80;;;11.90;82.80;;;;;;5052630;28;20200;-64
2022/05/02 07:02:08;;;;;;;10.43;7.93;;;12.10;82.90;;;;;;5050262;28;20205;-63
2022/05/02 07:04:45;;;;;;;12.13;9.25;;;12.20;81.80;;;;;;5052312;28;20209;-64
2022/05/02 07:07:37;;;;;;;9.05;7.90;;;12.40;81.60;;;;;;5051589;28;20209;-63
2022/05/02 07:10:08;;;;;;;12.35;8.55;;;12.50;80.70;;;;;;5049562;28;20669;-63
2022/05/02 07:12:41;;;;;;;9.10;8.18;;;12.70;80.40;;;;;;5050964;28;20222;-64
2022/05/02 07:15:13;;;;;;;9.05;7.65;;;12.80;77.50;;;;;;5052082;28;20289;-63
2022/05/02 07:18:04;;;;;;;9.10;8.07;;;12.90;77.50;;;;;;5052006;28;20191;-63
2022/05/02 07:20:37;;;;;;;9.63;7.87;;;13.20;78.90;;;;;;5053056;28;20433;-63
2022/05/02 07:23:26;;;;;;;9.47;8.50;;;13.30;78.00;;;;;;5051292;28;20469;-64
2022/05/02 07:26:00;;;;;;;10.50;7.60;;;13.50;76.80;;;;;;5048891;28;20794;-63
2022/05/02 07:28:34;;;;;;;8.70;7.80;;;13.70;76.40;;;;;;5051828;28;20433;-67
2022/05/02 07:31:02;;;;;;;8.43;7.53;;;13.90;76.80;;;;;;5052453;28;20936;-64
2022/05/02 07:33:36;;;;;;;12.10;8.83;;;14.10;76.00;;;;;;5053090;28;21019;-64
2022/05/02 07:36:04;;;;;;;8.90;8.00;;;14.30;74.70;;;;;;5052234;28;20787;-64
2022/05/02 07:38:33;;;;;;;8.17;7.20;;;14.50;74.20;;;;;;5053023;28;20495;-64
2022/05/02 07:43:50;;;;;;;10.07;7.93;;;15.10;74.20;;;;;;5052805;28;20420;-64
2022/05/02 07:46:21;;;;;;;8.90;8.00;;;15.40;72.20;;;;;;5051798;28;20475;-64
2022/05/02 07:48:50;;;;;;;10.23;6.50;;;15.70;70.20;;;;;;5052654;28;20464;-63
2022/05/02 07:51:19;;;;;;;8.43;7.30;;;15.90;70.90;;;;;;5051607;28;20440;-64
2022/05/02 07:53:47;;;;;;;9.13;7.63;;;16.30;70.00;;;;;;5050692;28;20486;-63
2022/05/02 07:56:16;;;;;;;8.73;6.90;;;16.60;68.90;;;;;;5052519;28;20441;-63
2022/05/02 07:58:47;;;;;;;10.70;7.77;;;16.80;67.50;;;;;;5051380;28;20537;-65
2022/05/02 08:01:18;;;;;;;8.17;7.33;;;17.10;65.40;;;;;;5051102;28;20818;-63
2022/05/02 08:03:45;;;;;;;9.73;7.20;;;17.30;62.60;;;;;;5051596;28;20495;-63
2022/05/02 08:06:24;;;;;;;8.20;6.90;;;17.40;63.20;;;;;;5051381;28;20456;-65
2022/05/02 08:09:11;;;;;;;7.47;6.70;;;17.50;61.20;;;;;;5051885;28;20472;-63
2022/05/02 08:11:47;;;;;;;6.53;5.87;;;17.70;59.80;;;;;;5049902;28;20432;-63
2022/05/02 08:14:17;;;;;;;7.10;5.57;;;17.80;57.00;;;;;;5051402;28;20436;-63
2022/05/02 08:16:57;;;;;;;6.50;5.27;;;17.80;57.90;;;;;;5050166;28;20445;-63
2022/05/02 08:19:42;;;;;;;6.57;5.83;;;18.00;58.20;;;;;;5052276;28;20804;-64
2022/05/02 08:28:06;;;;;;;6.83;5.00;;;18.50;57.50;;;;;;5047263;28;20478;-63
2022/05/02 08:30:37;;;;;;;5.80;5.20;;;18.80;56.50;;;;;;5048612;28;20456;-64
2022/05/02 08:33:06;;;;;;;5.53;5.03;;;19.00;56.40;;;;;;5049807;28;20858;-63
2022/05/02 08:35:48;;;;;;;4.77;4.23;;;19.10;53.10;;;;;;5047829;28;20920;-64
2022/05/02 08:38:41;;;;;;;4.57;3.97;;;19.10;52.30;;;;;;5048935;28;20445;-63
2022/05/02 08:41:39;;;;;;;4.90;4.20;;;19.10;52.70;;;;;;5048934;28;20444;-64
2022/05/02 08:44:51;;;;;;;6.23;5.07;;;19.30;51.20;;;;;;5048558;28;20472;-64
2022/05/02 08:47:57;;;;;;;5.83;4.33;;;19.40;51.10;;;;;;5050012;28;20472;-64
2022/05/02 08:50:35;;;;;;;5.43;4.70;;;19.60;49.20;;;;;;5050246;28;20448;-64
2022/05/02 08:53:54;;;;;;;5.97;4.90;;;19.60;49.40;;;;;;5049547;28;20575;-64
2022/05/02 08:56:50;;;;;;;4.87;4.27;;;19.70;49.50;;;;;;5048026;28;20513;-64
2022/05/02 08:59:55;;;;;;;5.37;4.40;;;19.70;48.50;;;;;;5048948;28;21377;-64
2022/05/02 09:03:06;;;;;;;4.53;4.00;;;19.70;50.70;;;;;;5048992;28;20443;-64
2022/05/02 09:06:06;;;;;;;5.33;4.00;;;19.90;52.10;;;;;;5046679;28;20519;-64
2022/05/02 09:09:13;;;;;;;6.03;4.10;;;20.10;49.20;;;;;;5049347;28;20444;-63
2022/05/02 09:12:03;;;;;;;4.87;3.80;;;20.20;48.10;;;;;;5005446;28;20546;-63
2022/05/02 09:15:10;;;;;;;5.97;4.17;;;20.20;49.50;;;;;;5047910;28;20437;-64
2022/05/02 09:18:20;;;;;;;7.43;4.60;;;20.30;48.70;;;;;;5050766;28;20794;-64
2022/05/02 09:20:54;;;;;;;9.03;5.30;;;20.50;49.50;;;;;;5026411;28;20489;-64
2022/05/02 09:24:13;;;;;;;5.00;3.77;;;20.80;51.20;;;;;;5049377;28;20441;-65
2022/05/02 09:27:09;;;;;;;4.00;3.27;;;20.90;47.20;;;;;;5048259;28;20452;-66
2022/05/02 09:30:07;;;;;;;8.03;4.73;;;21.00;46.70;;;;;;5050323;28;20528;-64
2022/05/02 09:32:47;;;;;;;8.43;4.40;;;21.40;49.30;;;;;;5047486;28;20472;-64
2022/05/02 09:35:27;;;;;;;6.07;4.20;;;21.60;49.80;;;;;;5050099;28;20455;-64
2022/05/02 09:37:57;;;;;;;5.60;4.10;;;21.90;48.80;;;;;;5047111;28;20791;-64
2022/05/02 09:40:35;;;;;;;4.37;3.77;;;22.10;47.70;;;;;;5046409;28;20957;-64
2022/05/02 09:43:18;;;;;;;4.70;4.07;;;22.30;47.90;;;;;;5050229;28;20456;-64
2022/05/02 09:52:10;;;;;;;4.40;3.77;;;22.80;44.20;;;;;;5049666;28;20591;-64
2022/05/02 09:58:03;;;;;;;3.73;3.33;;;22.70;42.30;;;;;;5048852;28;20892;-64
2022/05/02 10:03:38;;;;;;;5.60;4.10;;;22.70;42.70;;;;;;5049983;28;20813;-63
2022/05/02 10:06:08;;;;;;;4.17;3.20;;;22.60;41.90;;;;;;5049302;28;20520;-64
2022/05/02 10:08:50;;;;;;;4.27;3.57;;;22.30;41.70;;;;;;5050075;28;20779;-64
2022/05/02 10:11:54;;;;;;;3.93;3.37;;;22.20;41.60;;;;;;5048371;28;20440;-64
2022/05/02 10:14:52;;;;;;;3.77;3.27;;;22.20;42.10;;;;;;5049355;28;20542;-64
2022/05/02 10:17:34;;;;;;;3.47;2.73;;;22.50;41.80;;;;;;5015136;28;20520;-64
2022/05/02 10:20:15;;;;;;;4.03;3.20;;;22.40;41.70;;;;;;5048434;28;20848;-64
2022/05/02 10:22:59;;;;;;;3.67;3.07;;;22.50;40.60;;;;;;5049579;28;20764;-64
2022/05/02 10:25:36;;;;;;;4.20;2.93;;;22.40;40.90;;;;;;5046174;28;20441;-65
2022/05/02 10:28:18;;;;;;;4.00;2.47;;;22.50;42.30;;;;;;5050149;28;20421;-65
2022/05/02 10:30:54;;;;;;;3.20;2.43;;;22.60;40.80;;;;;;5048672;28;20482;-64
2022/05/02 10:33:30;;;;;;;3.50;2.83;;;22.80;39.70;;;;;;5049840;28;20492;-65
2022/05/02 10:36:00;;;;;;;3.50;2.90;;;23.10;41.30;;;;;;5044741;28;20425;-64
2022/05/02 10:38:29;;;;;;;3.37;2.60;;;23.40;41.70;;;;;;5050124;28;20445;-65
2022/05/02 10:41:05;;;;;;;4.93;2.70;;;23.60;40.30;;;;;;5047493;28;20946;-64
2022/05/02 10:43:37;;;;;;;4.73;2.97;;;23.80;39.70;;;;;;5050287;28;20538;-63
2022/05/02 10:46:04;;;;;;;4.27;2.63;;;24.00;38.60;;;;;;5048885;28;20555;-64
2022/05/02 10:48:43;;;;;;;3.73;2.80;;;24.20;39.10;;;;;;5050181;28;20518;-64
2022/05/02 10:51:19;;;;;;;4.30;3.30;;;24.40;39.80;;;;;;5049084;28;20739;-65
2022/05/02 10:53:59;;;;;;;3.73;3.13;;;24.50;37.60;;;;;;5048557;28;20529;-64
2022/05/02 10:56:35;;;;;;;3.00;2.50;;;24.50;38.00;;;;;;5049947;28;20840;-64
2022/05/02 10:59:08;;;;;;;3.60;3.10;;;24.50;35.70;;;;;;5048758;28;20990;-64
2022/05/02 11:02:20;;;;;;;3.70;2.90;;;24.40;36.60;;;;;;5049885;28;20831;-65
2022/05/02 11:05:07;;;;;;;3.40;2.97;;;24.40;36.60;;;;;;5046656;28;20535;-63
2022/05/02 11:07:46;;;;;;;4.03;3.10;;;24.30;36.20;;;;;;5049466;28;20831;-64
2022/05/02 11:10:16;;;;;;;6.23;4.10;;;24.10;36.00;;;;;;5050087;28;20452;-64
2022/05/02 11:12:47;;;;;;;4.93;3.53;;;23.90;35.80;;;;;;5045780;28;20481;-64
2022/05/02 11:15:18;;;;;;;3.30;2.93;;;23.70;36.40;;;;;;5049452;28;20445;-64
2022/05/02 11:18:04;;;;;;;3.90;2.93;;;23.60;36.90;;;;;;5048914;28;20437;-64
2022/05/02 11:20:41;;;;;;;3.50;3.17;;;23.70;38.30;;;;;;5049153;28;20918;-64
2022/05/02 11:23:53;;;;;;;3.60;3.00;;;23.70;38.00;;;;;;5049284;28;20524;-64
2022/05/02 11:26:33;;;;;;;3.67;2.97;;;23.60;36.10;;;;;;5012764;28;20441;-64
2022/05/02 11:29:13;;;;;;;4.73;3.20;;;23.30;36.40;;;;;;5052413;28;20444;-64
2022/05/02 11:31:49;;;;;;;5.73;3.30;;;23.20;36.00;;;;;;5051613;28;20519;-64
2022/05/02 11:34:30;;;;;;;4.10;3.20;;;23.20;37.40;;;;;;5051331;28;20498;-64
2022/05/02 11:36:59;;;;;;;6.87;3.07;;;23.20;36.90;;;;;;5051585;28;20476;-64
2022/05/02 11:39:36;;;;;;;3.30;2.90;;;23.20;38.00;;;;;;5052406;28;20447;-64
2022/05/02 11:42:10;;;;;;;3.67;3.00;;;23.20;37.30;;;;;;5053293;28;20941;-63
2022/05/02 11:44:59;;;;;;;4.03;3.23;;;23.30;38.40;;;;;;5051953;28;20436;-63
2022/05/02 11:47:38;;;;;;;3.37;2.60;;;23.50;38.10;;;;;;5051036;28;20551;-64
2022/05/02 11:50:06;;;;;;;3.83;2.83;;;23.50;36.80;;;;;;5051673;28;20524;-64
2022/05/02 11:52:35;;;;;;;4.10;3.30;;;23.60;36.50;;;;;;5053237;28;20449;-63
2022/05/02 11:55:04;;;;;;;3.13;2.60;;;23.60;36.00;;;;;;5050015;28;20510;-67
2022/05/02 11:57:39;;;;;;;3.13;2.60;;;23.70;37.10;;;;;;5052106;28;20441;-65
2022/05/02 12:00:11;;;;;;;3.23;2.90;;;23.50;35.60;;;;;;5051340;28;20522;-64
2022/05/02 12:02:56;;;;;;;3.20;2.27;;;23.40;34.50;;;;;;5054037;28;20980;-63
2022/05/02 12:05:31;;;;;;;3.43;2.70;;;23.20;34.20;;;;;;5050408;28;20444;-63
2022/05/02 12:08:00;;;;;;;2.87;2.30;;;23.20;36.70;;;;;;5051158;28;20444;-64
2022/05/02 12:10:35;;;;;;;3.90;2.90;;;23.40;38.30;;;;;;5047521;28;20523;-64
2022/05/02 12:13:05;;;;;;;3.50;2.60;;;23.50;37.10;;;;;;5053757;28;20894;-64
2022/05/02 12:15:32;;;;;;;4.10;2.60;;;23.60;36.40;;;;;;5052573;28;20444;-65
2022/05/02 12:18:03;;;;;;;6.83;2.97;;;23.50;35.90;;;;;;5053928;28;20433;-63
2022/05/02 12:20:32;;;;;;;3.33;2.60;;;23.40;35.20;;;;;;5052743;28;20437;-64
2022/05/02 12:23:06;;;;;;;3.63;3.10;;;23.10;36.20;;;;;;5053516;28;20444;-66
2022/05/02 12:25:34;;;;;;;3.77;3.10;;;22.80;37.40;;;;;;5052275;28;20978;-63
2022/05/02 12:28:03;;;;;;;3.33;2.70;;;22.60;35.60;;;;;;5052953;28;20522;-64
2022/05/02 12:30:34;;;;;;;4.20;3.00;;;22.40;36.30;;;;;;5052307;28;20476;-65
2022/05/02 12:33:03;;;;;;;4.30;3.37;;;22.20;37.40;;;;;;5049965;28;20433;-64
2022/05/02 12:35:40;;;;;;;3.30;2.47;;;22.00;37.70;;;;;;5051746;28;20437;-63
2022/05/02 12:38:23;;;;;;;3.97;2.90;;;21.90;39.80;;;;;;5048211;28;20500;-65
2022/05/02 12:40:52;;;;;;;3.40;3.00;;;22.00;39.90;;;;;;5051753;28;20511;-64
2022/05/02 12:43:26;;;;;;;3.73;3.30;;;22.20;39.30;;;;;;5053446;28;20433;-63
2022/05/02 12:45:55;;;;;;;4.17;3.30;;;22.30;39.60;;;;;;5051974;28;21418;-64
2022/05/02 12:48:24;;;;;;;5.07;3.00;;;22.50;39.20;;;;;;5052920;28;20529;-64
2022/05/02 12:50:54;;;;;;;3.87;2.80;;;22.60;39.80;;;;;;5051936;28;20899;-63
2022/05/02 12:56:05;;;;;;;4.07;3.27;;;22.60;39.30;;;;;;5046722;28;20424;-63
2022/05/02 13:01:21;;;;;;;4.63;3.27;;;22.70;39.60;;;;;;5052759;28;20428;-64
2022/05/02 13:03:55;;;;;;;3.90;2.53;;;22.90;38.10;;;;;;5051689;28;20444;-63
2022/05/02 13:06:23;;;;;;;3.00;2.33;;;22.90;37.90;;;;;;5052574;28;20444;-64
2022/05/02 13:08:50;;;;;;;5.27;2.60;;;23.00;37.70;;;;;;5051870;28;20437;-64
2022/05/02 13:11:22;;;;;;;4.63;2.90;;;23.10;37.50;;;;;;5050887;28;20564;-64
2022/05/02 13:13:52;;;;;;;3.17;2.60;;;23.20;36.70;;;;;;5047633;28;20469;-65
2022/05/02 13:16:29;;;;;;;3.77;2.70;;;23.10;35.60;;;;;;5049321;28;20435;-64
2022/05/02 13:18:58;;;;;;;4.13;2.40;;;22.90;35.70;;;;;;5052207;28;20443;-63
2022/05/02 13:21:26;;;;;;;3.27;2.60;;;22.80;35.70;;;;;;5052251;28;20429;-63
2022/05/02 13:23:57;;;;;;;3.73;2.00;;;22.50;35.90;;;;;;5049748;28;20932;-64
2022/05/02 13:27:02;;;;;;;3.27;2.80;;;22.50;37.70;;;;;;5052646;28;20437;-64
2022/05/02 13:29:58;;;;;;;4.00;2.57;;;22.40;38.30;;;;;;5051423;28;20447;-64
2022/05/02 13:32:28;;;;;;;3.30;2.70;;;22.30;38.20;;;;;;5047514;28;20839;-63
2022/05/02 13:35:10;;;;;;;3.60;2.80;;;22.20;37.70;;;;;;5052569;28;20806;-64
2022/05/02 13:37:56;;;;;;;3.70;3.27;;;22.10;36.80;;;;;;5048394;28;20981;-64
2022/05/02 13:40:38;;;;;;;3.70;3.30;;;22.00;38.30;;;;;;5051547;28;20499;-64
2022/05/02 13:43:13;;;;;;;4.67;3.27;;;21.70;39.30;;;;;;5051727;28;20520;-65
2022/05/02 13:45:47;;;;;;;6.70;3.03;;;21.60;38.90;;;;;;5051930;28;20472;-63
2022/05/02 13:48:30;;;;;;;4.83;3.57;;;21.50;39.10;;;;;;5051551;28;20826;-63
2022/05/02 13:51:04;;;;;;;3.30;2.67;;;21.50;38.60;;;;;;5049887;28;20848;-67
2022/05/02 13:53:38;;;;;;;3.80;3.17;;;21.40;38.40;;;;;;5051028;28;20445;-64
2022/05/02 13:56:13;;;;;;;3.90;3.43;;;21.30;39.60;;;;;;5047765;28;20786;-63
2022/05/02 13:58:59;;;;;;;4.67;3.97;;;21.20;39.30;;;;;;5050239;28;20436;-63